YMAV Airport Information

Runway Information
Runway 18 Length 10000 ft width 148 ft
Elevation 32 ft Threshold ft Heading 187
Runway 36 Length 10000 ft Width 148 ft
Elevation 34 ft Threshold ft Heading 7
Airport Frequencies
Type ATIS Name ATIS Frequency 116.1 MHZ
Type CTAF Name CTAF Frequency 120.1 MHZ
Type FSS Name MELBOURNE Frequency 135.7 MHZ
Type TWR Name TWR Frequency 120.1 MHZ
Type UNIC Name FLIGHT OPS Frequency 129.3 MHZ
Airport Navaids
Type VOR-DME Name Avalon Frequency 116100 KHZ
Type NDB Name Avalon Frequency 404 KHZ
Type NDB Name Ripley (Decommissioned) Frequency 224 KHZ
Airport Weather Information & NOTAM
ADDS - METARS form results

(1318 UTC 26 June 2022)
Data provider http://aviationweather.gov/metar/data/
 
METAR text: YMAV 261300Z AUTO 28009KT 9999 // NCD 06/05 Q1029 RF00.0/001.0
Conditions at: YMAV (AVALON AIRPORT , AU) observed 1300 UTC 26 June 2022
Temperature: 6.0°C (43°F)
Dewpoint: 5.0°C (41°F) [RH = 93%]
Pressure (altimeter): 30.38 inches Hg (1029.0 mb)
Winds: from the W (280 degrees) at 10 MPH (9 knots; 4.6 m/s)
Visibility: 6 or more miles (10+ km)
Ceiling: at least 12,000 feet AGL
Clouds: sky clear below 12,000 feet AGL
Weather: no significant weather observed at this time

METAR text: YMAV 261230Z AUTO 29010KT 9999 // SCT060 07/05 Q1029 RF00.0/001.0
Conditions at: YMAV (AVALON AIRPORT , AU) observed 1230 UTC 26 June 2022
Temperature: 7.0°C (45°F)
Dewpoint: 5.0°C (41°F) [RH = 87%]
Pressure (altimeter): 30.38 inches Hg (1029.0 mb)
Winds: from the WNW (290 degrees) at 12 MPH (10 knots; 5.1 m/s)
Visibility: 6 or more miles (10+ km)
Ceiling: at least 12,000 feet AGL
Clouds: scattered clouds at 6000 feet AGL
Weather: no significant weather observed at this time

Forecast for: YMAV (AVALON AIRPORT , AU)
Text: TAF YMAV 261117Z 2612/2712 18008KT 9999 SCT040
Forecast period: 1200 UTC 26 June 2022 to 0300 UTC 27 June 2022
Forecast type: FROM: standard forecast or significant change
Winds: from the S (180 degrees) at 9 MPH (8 knots; 4.1 m/s)
Visibility: 6 or more miles (10+ km)
Ceiling: at least 12,000 feet AGL
Clouds: scattered clouds at 4000 feet AGL
Weather: no significant weather forecast for this period
Text: FM270300 24010KT 9999 SCT035
Forecast period: 0300 to 0900 UTC 27 June 2022
Forecast type: FROM: standard forecast or significant change
Winds: from the WSW (240 degrees) at 12 MPH (10 knots; 5.1 m/s)
Visibility: 6 or more miles (10+ km)
Ceiling: at least 12,000 feet AGL
Clouds: scattered clouds at 3500 feet AGL
Weather: no significant weather forecast for this period
Text: FM270900 34007KT 9999 SCT035
Forecast period: 0900 to 1200 UTC 27 June 2022
Forecast type: FROM: standard forecast or significant change
Winds: from the NNW (340 degrees) at 8 MPH (7 knots; 3.6 m/s)
Visibility: 6 or more miles (10+ km)
Ceiling: at least 12,000 feet AGL
Clouds: scattered clouds at 3500 feet AGL
Weather: no significant weather forecast for this period